sensor_id;sensor_type;location;lat;lon;timestamp;temperature;humidity
20081;DHT22;10200;49.232;9.222;2022-11-20T00:01:24;4.80;99.90
20081;DHT22;10200;49.232;9.222;2022-11-20T00:03:54;4.90;99.90
20081;DHT22;10200;49.232;9.222;2022-11-20T00:06:21;4.80;99.90
20081;DHT22;10200;49.232;9.222;2022-11-20T00:08:48;4.80;99.90
20081;DHT22;10200;49.232;9.222;2022-11-20T00:11:19;4.80;99.90
20081;DHT22;10200;49.232;9.222;2022-11-20T00:13:47;4.80;99.90
20081;DHT22;10200;49.232;9.222;2022-11-20T00:16:15;4.80;99.90
20081;DHT22;10200;49.232;9.222;2022-11-20T00:18:41;4.70;99.90
20081;DHT22;10200;49.232;9.222;2022-11-20T00:21:14;4.70;99.90
20081;DHT22;10200;49.232;9.222;2022-11-20T00:23:40;4.70;99.90
20081;DHT22;10200;49.232;9.222;2022-11-20T00:26:09;4.80;99.90
20081;DHT22;10200;49.232;9.222;2022-11-20T00:28:35;4.80;99.90
20081;DHT22;10200;49.232;9.222;2022-11-20T00:31:06;4.80;99.90
20081;DHT22;10200;49.232;9.222;2022-11-20T00:33:31;4.80;99.90
20081;DHT22;10200;49.232;9.222;2022-11-20T00:36:05;4.70;99.90
20081;DHT22;10200;49.232;9.222;2022-11-20T00:38:31;4.70;99.90
20081;DHT22;10200;49.232;9.222;2022-11-20T00:40:58;4.70;99.90
20081;DHT22;10200;49.232;9.222;2022-11-20T00:43:24;4.70;99.90
20081;DHT22;10200;49.232;9.222;2022-11-20T00:45:50;4.80;99.90
20081;DHT22;10200;49.232;9.222;2022-11-20T00:48:15;4.80;99.90
20081;DHT22;10200;49.232;9.222;2022-11-20T00:50:42;4.80;99.90
20081;DHT22;10200;49.232;9.222;2022-11-20T00:53:07;4.80;99.90
20081;DHT22;10200;49.232;9.222;2022-11-20T00:55:33;4.80;99.90
20081;DHT22;10200;49.232;9.222;2022-11-20T00:57:58;4.80;99.90
20081;DHT22;10200;49.232;9.222;2022-11-20T01:00:24;4.80;99.90
20081;DHT22;10200;49.232;9.222;2022-11-20T01:02:49;4.80;99.90
20081;DHT22;10200;49.232;9.222;2022-11-20T01:05:15;4.80;99.90
20081;DHT22;10200;49.232;9.222;2022-11-20T01:07:40;4.90;99.90
20081;DHT22;10200;49.232;9.222;2022-11-20T01:10:06;4.80;99.90
20081;DHT22;10200;49.232;9.222;2022-11-20T01:12:32;4.90;99.90
20081;DHT22;10200;49.232;9.222;2022-11-20T01:14:57;4.80;99.90
20081;DHT22;10200;49.232;9.222;2022-11-20T01:17:23;4.90;99.90
20081;DHT22;10200;49.232;9.222;2022-11-20T01:19:49;4.90;99.90
20081;DHT22;10200;49.232;9.222;2022-11-20T01:22:16;4.90;99.90
20081;DHT22;10200;49.232;9.222;2022-11-20T01:24:41;4.90;99.90
20081;DHT22;10200;49.232;9.222;2022-11-20T01:27:07;4.90;99.90
20081;DHT22;10200;49.232;9.222;2022-11-20T01:29:32;4.90;99.90
20081;DHT22;10200;49.232;9.222;2022-11-20T01:31:58;4.90;99.90
20081;DHT22;10200;49.232;9.222;2022-11-20T01:34:23;4.90;99.90
20081;DHT22;10200;49.232;9.222;2022-11-20T01:36:51;4.90;99.90
20081;DHT22;10200;49.232;9.222;2022-11-20T01:39:25;4.90;99.90
20081;DHT22;10200;49.232;9.222;2022-11-20T01:41:53;4.90;99.90
20081;DHT22;10200;49.232;9.222;2022-11-20T01:44:53;5.00;99.90
20081;DHT22;10200;49.232;9.222;2022-11-20T01:47:36;5.00;99.90
20081;DHT22;10200;49.232;9.222;2022-11-20T01:50:06;5.00;99.90
20081;DHT22;10200;49.232;9.222;2022-11-20T01:52:40;5.00;99.90
20081;DHT22;10200;49.232;9.222;2022-11-20T01:55:11;5.10;99.90
20081;DHT22;10200;49.232;9.222;2022-11-20T01:57:38;5.00;99.90
20081;DHT22;10200;49.232;9.222;2022-11-20T02:00:13;5.10;99.90
20081;DHT22;10200;49.232;9.222;2022-11-20T02:02:42;5.10;99.90
20081;DHT22;10200;49.232;9.222;2022-11-20T02:05:23;5.10;99.90
20081;DHT22;10200;49.232;9.222;2022-11-20T02:07:49;5.10;99.90
20081;DHT22;10200;49.232;9.222;2022-11-20T02:10:15;5.10;99.90
20081;DHT22;10200;49.232;9.222;2022-11-20T02:12:41;5.10;99.90
20081;DHT22;10200;49.232;9.222;2022-11-20T02:15:25;5.20;99.90
20081;DHT22;10200;49.232;9.222;2022-11-20T02:17:51;5.10;99.90
20081;DHT22;10200;49.232;9.222;2022-11-20T02:20:16;5.20;99.90
20081;DHT22;10200;49.232;9.222;2022-11-20T02:22:50;5.10;99.90
20081;DHT22;10200;49.232;9.222;2022-11-20T02:25:19;5.20;99.90
20081;DHT22;10200;49.232;9.222;2022-11-20T02:27:45;5.10;99.90
20081;DHT22;10200;49.232;9.222;2022-11-20T02:30:11;5.10;99.90
20081;DHT22;10200;49.232;9.222;2022-11-20T02:32:37;5.20;99.90
20081;DHT22;10200;49.232;9.222;2022-11-20T02:37:48;5.20;99.90
20081;DHT22;10200;49.232;9.222;2022-11-20T02:40:15;5.20;99.90
20081;DHT22;10200;49.232;9.222;2022-11-20T02:42:41;5.20;99.90
20081;DHT22;10200;49.232;9.222;2022-11-20T02:45:07;5.20;99.90
20081;DHT22;10200;49.232;9.222;2022-11-20T02:47:33;5.20;99.90
20081;DHT22;10200;49.232;9.222;2022-11-20T02:49:59;5.20;99.90
20081;DHT22;10200;49.232;9.222;2022-11-20T02:52:25;5.20;99.90
20081;DHT22;10200;49.232;9.222;2022-11-20T02:54:51;5.20;99.90
20081;DHT22;10200;49.232;9.222;2022-11-20T02:57:16;5.30;99.90
20081;DHT22;10200;49.232;9.222;2022-11-20T02:59:42;5.30;99.90
20081;DHT22;10200;49.232;9.222;2022-11-20T03:02:07;5.30;99.90
20081;DHT22;10200;49.232;9.222;2022-11-20T03:04:33;5.30;99.90
20081;DHT22;10200;49.232;9.222;2022-11-20T03:06:58;5.30;99.90
20081;DHT22;10200;49.232;9.222;2022-11-20T03:09:24;5.30;99.90
20081;DHT22;10200;49.232;9.222;2022-11-20T03:11:50;5.30;99.90
20081;DHT22;10200;49.232;9.222;2022-11-20T03:14:15;5.30;99.90
20081;DHT22;10200;49.232;9.222;2022-11-20T03:16:41;5.30;99.90
20081;DHT22;10200;49.232;9.222;2022-11-20T03:19:07;5.20;99.90
20081;DHT22;10200;49.232;9.222;2022-11-20T03:21:33;5.20;99.90
20081;DHT22;10200;49.232;9.222;2022-11-20T03:23:59;5.30;99.90
20081;DHT22;10200;49.232;9.222;2022-11-20T03:26:26;5.30;99.90
20081;DHT22;10200;49.232;9.222;2022-11-20T03:28:54;5.30;99.90
20081;DHT22;10200;49.232;9.222;2022-11-20T03:31:28;5.30;99.90
20081;DHT22;10200;49.232;9.222;2022-11-20T03:33:56;5.30;99.90
20081;DHT22;10200;49.232;9.222;2022-11-20T03:36:22;5.30;99.90
20081;DHT22;10200;49.232;9.222;2022-11-20T03:38:48;5.30;99.90
20081;DHT22;10200;49.232;9.222;2022-11-20T03:41:29;5.40;99.90
20081;DHT22;10200;49.232;9.222;2022-11-20T03:43:58;5.40;99.90
20081;DHT22;10200;49.232;9.222;2022-11-20T03:46:24;5.40;99.90
20081;DHT22;10200;49.232;9.222;2022-11-20T03:48:50;5.40;99.90
20081;DHT22;10200;49.232;9.222;2022-11-20T03:51:21;5.40;99.90
20081;DHT22;10200;49.232;9.222;2022-11-20T03:53:48;5.40;99.90
20081;DHT22;10200;49.232;9.222;2022-11-20T03:56:16;5.40;99.90
20081;DHT22;10200;49.232;9.222;2022-11-20T03:58:42;5.40;99.90
20081;DHT22;10200;49.232;9.222;2022-11-20T04:01:14;5.50;99.90
20081;DHT22;10200;49.232;9.222;2022-11-20T04:03:42;5.50;99.90
20081;DHT22;10200;49.232;9.222;2022-11-20T04:06:09;5.50;99.90
20081;DHT22;10200;49.232;9.222;2022-11-20T04:08:35;5.50;99.90
20081;DHT22;10200;49.232;9.222;2022-11-20T04:11:19;5.60;99.90
20081;DHT22;10200;49.232;9.222;2022-11-20T04:13:50;5.60;99.90
20081;DHT22;10200;49.232;9.222;2022-11-20T04:16:16;5.60;99.90
20081;DHT22;10200;49.232;9.222;2022-11-20T04:18:42;5.60;99.90
20081;DHT22;10200;49.232;9.222;2022-11-20T04:21:09;5.50;99.90
20081;DHT22;10200;49.232;9.222;2022-11-20T04:23:35;5.60;99.90
20081;DHT22;10200;49.232;9.222;2022-11-20T04:26:08;5.60;99.90
20081;DHT22;10200;49.232;9.222;2022-11-20T04:28:34;5.60;99.90
20081;DHT22;10200;49.232;9.222;2022-11-20T04:31:04;5.60;99.90
20081;DHT22;10200;49.232;9.222;2022-11-20T04:33:30;5.50;99.90
20081;DHT22;10200;49.232;9.222;2022-11-20T04:36:00;5.50;99.90
20081;DHT22;10200;49.232;9.222;2022-11-20T04:38:26;5.50;99.90
20081;DHT22;10200;49.232;9.222;2022-11-20T04:40:59;5.50;99.90
20081;DHT22;10200;49.232;9.222;2022-11-20T04:43:24;5.50;99.90
20081;DHT22;10200;49.232;9.222;2022-11-20T04:45:52;5.50;99.90
20081;DHT22;10200;49.232;9.222;2022-11-20T04:48:18;5.50;99.90
20081;DHT22;10200;49.232;9.222;2022-11-20T04:50:43;5.50;99.90
20081;DHT22;10200;49.232;9.222;2022-11-20T04:53:09;5.60;99.90
20081;DHT22;10200;49.232;9.222;2022-11-20T04:55:34;5.60;99.90
20081;DHT22;10200;49.232;9.222;2022-11-20T04:58:00;5.60;99.90
20081;DHT22;10200;49.232;9.222;2022-11-20T05:00:25;5.60;99.90
20081;DHT22;10200;49.232;9.222;2022-11-20T05:02:51;5.60;99.90
20081;DHT22;10200;49.232;9.222;2022-11-20T05:05:16;5.60;99.90
20081;DHT22;10200;49.232;9.222;2022-11-20T05:07:42;5.60;99.90
20081;DHT22;10200;49.232;9.222;2022-11-20T05:10:07;5.60;99.90
20081;DHT22;10200;49.232;9.222;2022-11-20T05:12:33;5.70;99.90
20081;DHT22;10200;49.232;9.222;2022-11-20T05:14:59;5.70;99.90
20081;DHT22;10200;49.232;9.222;2022-11-20T05:17:24;5.70;99.90
20081;DHT22;10200;49.232;9.222;2022-11-20T05:19:50;5.70;99.90
20081;DHT22;10200;49.232;9.222;2022-11-20T05:22:15;5.70;99.90
20081;DHT22;10200;49.232;9.222;2022-11-20T05:24:41;5.70;99.90
20081;DHT22;10200;49.232;9.222;2022-11-20T05:27:06;5.70;99.90
20081;DHT22;10200;49.232;9.222;2022-11-20T05:29:32;5.70;99.90
20081;DHT22;10200;49.232;9.222;2022-11-20T05:31:58;5.70;99.90
20081;DHT22;10200;49.232;9.222;2022-11-20T05:34:23;5.70;99.90
20081;DHT22;10200;49.232;9.222;2022-11-20T05:36:49;5.70;99.90
20081;DHT22;10200;49.232;9.222;2022-11-20T05:39:14;5.80;99.90
20081;DHT22;10200;49.232;9.222;2022-11-20T05:41:40;5.80;99.90
20081;DHT22;10200;49.232;9.222;2022-11-20T05:44:05;5.80;99.90
20081;DHT22;10200;49.232;9.222;2022-11-20T05:46:31;5.80;99.90
20081;DHT22;10200;49.232;9.222;2022-11-20T05:48:57;5.80;99.90
20081;DHT22;10200;49.232;9.222;2022-11-20T05:51:24;5.80;99.90
20081;DHT22;10200;49.232;9.222;2022-11-20T05:53:49;5.80;99.90
20081;DHT22;10200;49.232;9.222;2022-11-20T05:56:17;5.80;99.90
20081;DHT22;10200;49.232;9.222;2022-11-20T05:58:43;5.90;99.90
20081;DHT22;10200;49.232;9.222;2022-11-20T06:03:37;5.90;99.90
20081;DHT22;10200;49.232;9.222;2022-11-20T06:06:04;5.90;99.90
20081;DHT22;10200;49.232;9.222;2022-11-20T06:08:30;6.00;99.90
20081;DHT22;10200;49.232;9.222;2022-11-20T06:10:56;5.90;99.90
20081;DHT22;10200;49.232;9.222;2022-11-20T06:13:22;5.90;99.90
20081;DHT22;10200;49.232;9.222;2022-11-20T06:15:53;5.90;99.90
20081;DHT22;10200;49.232;9.222;2022-11-20T06:18:19;5.90;99.90
20081;DHT22;10200;49.232;9.222;2022-11-20T06:20:46;5.90;99.90
20081;DHT22;10200;49.232;9.222;2022-11-20T06:23:12;5.90;99.90
20081;DHT22;10200;49.232;9.222;2022-11-20T06:25:42;6.00;99.90
20081;DHT22;10200;49.232;9.222;2022-11-20T06:28:08;6.00;99.90
20081;DHT22;10200;49.232;9.222;2022-11-20T06:30:35;6.00;99.90
20081;DHT22;10200;49.232;9.222;2022-11-20T06:33:01;6.00;99.90
20081;DHT22;10200;49.232;9.222;2022-11-20T06:35:26;6.00;99.90
20081;DHT22;10200;49.232;9.222;2022-11-20T06:37:52;6.10;99.90
20081;DHT22;10200;49.232;9.222;2022-11-20T06:40:17;6.10;99.90
20081;DHT22;10200;49.232;9.222;2022-11-20T06:42:43;6.10;99.90
20081;DHT22;10200;49.232;9.222;2022-11-20T06:45:09;6.20;99.90
20081;DHT22;10200;49.232;9.222;2022-11-20T06:47:34;6.20;99.90
20081;DHT22;10200;49.232;9.222;2022-11-20T06:50:00;6.20;99.90
20081;DHT22;10200;49.232;9.222;2022-11-20T06:52:25;6.20;99.90
20081;DHT22;10200;49.232;9.222;2022-11-20T06:54:51;6.20;99.90
20081;DHT22;10200;49.232;9.222;2022-11-20T06:57:16;6.20;99.90
20081;DHT22;10200;49.232;9.222;2022-11-20T06:59:42;6.20;99.90
20081;DHT22;10200;49.232;9.222;2022-11-20T07:02:10;6.20;99.90
20081;DHT22;10200;49.232;9.222;2022-11-20T07:04:37;6.20;99.90
20081;DHT22;10200;49.232;9.222;2022-11-20T07:07:02;6.30;99.90
20081;DHT22;10200;49.232;9.222;2022-11-20T07:09:28;6.30;99.90
20081;DHT22;10200;49.232;9.222;2022-11-20T07:11:53;6.30;99.90
20081;DHT22;10200;49.232;9.222;2022-11-20T07:14:19;6.40;99.90
20081;DHT22;10200;49.232;9.222;2022-11-20T07:16:44;6.40;99.90
20081;DHT22;10200;49.232;9.222;2022-11-20T07:19:10;6.40;99.90
20081;DHT22;10200;49.232;9.222;2022-11-20T07:21:35;6.40;99.90
20081;DHT22;10200;49.232;9.222;2022-11-20T07:24:01;6.50;99.90
20081;DHT22;10200;49.232;9.222;2022-11-20T07:26:26;6.50;99.90
20081;DHT22;10200;49.232;9.222;2022-11-20T07:28:52;6.50;99.90
20081;DHT22;10200;49.232;9.222;2022-11-20T07:31:17;6.50;99.90
20081;DHT22;10200;49.232;9.222;2022-11-20T07:33:43;6.50;99.90
20081;DHT22;10200;49.232;9.222;2022-11-20T07:36:09;6.50;99.90
20081;DHT22;10200;49.232;9.222;2022-11-20T07:38:34;6.60;99.90
20081;DHT22;10200;49.232;9.222;2022-11-20T07:41:00;6.60;99.90
20081;DHT22;10200;49.232;9.222;2022-11-20T07:43:28;6.70;99.90
20081;DHT22;10200;49.232;9.222;2022-11-20T07:45:58;6.70;99.90
20081;DHT22;10200;49.232;9.222;2022-11-20T07:48:24;6.70;99.90
20081;DHT22;10200;49.232;9.222;2022-11-20T07:50:53;6.80;99.90
20081;DHT22;10200;49.232;9.222;2022-11-20T07:53:19;6.90;99.90
20081;DHT22;10200;49.232;9.222;2022-11-20T07:55:47;6.90;99.90
20081;DHT22;10200;49.232;9.222;2022-11-20T07:58:12;7.00;99.90
20081;DHT22;10200;49.232;9.222;2022-11-20T08:00:39;7.10;99.90
20081;DHT22;10200;49.232;9.222;2022-11-20T08:03:05;7.10;99.90
20081;DHT22;10200;49.232;9.222;2022-11-20T08:05:31;7.10;99.90
20081;DHT22;10200;49.232;9.222;2022-11-20T08:07:56;7.10;99.90
20081;DHT22;10200;49.232;9.222;2022-11-20T08:10:22;7.20;99.90
20081;DHT22;10200;49.232;9.222;2022-11-20T08:12:51;7.20;99.90
20081;DHT22;10200;49.232;9.222;2022-11-20T08:15:37;7.20;99.90
20081;DHT22;10200;49.232;9.222;2022-11-20T08:18:06;7.20;99.90
20081;DHT22;10200;49.232;9.222;2022-11-20T08:20:32;7.20;99.90
20081;DHT22;10200;49.232;9.222;2022-11-20T08:23:02;7.20;99.90
20081;DHT22;10200;49.232;9.222;2022-11-20T08:25:32;7.30;99.90
20081;DHT22;10200;49.232;9.222;2022-11-20T08:27:59;7.30;99.90
20081;DHT22;10200;49.232;9.222;2022-11-20T08:30:25;7.30;99.90
20081;DHT22;10200;49.232;9.222;2022-11-20T08:32:51;7.40;99.90
20081;DHT22;10200;49.232;9.222;2022-11-20T08:35:17;7.40;99.90
20081;DHT22;10200;49.232;9.222;2022-11-20T08:37:46;7.50;99.90
20081;DHT22;10200;49.232;9.222;2022-11-20T08:40:12;7.50;99.90
20081;DHT22;10200;49.232;9.222;2022-11-20T08:42:48;7.50;99.90
20081;DHT22;10200;49.232;9.222;2022-11-20T08:45:15;7.60;99.90
20081;DHT22;10200;49.232;9.222;2022-11-20T08:47:41;7.60;99.90
20081;DHT22;10200;49.232;9.222;2022-11-20T08:50:10;7.60;99.90
20081;DHT22;10200;49.232;9.222;2022-11-20T08:52:36;7.60;99.90
20081;DHT22;10200;49.232;9.222;2022-11-20T08:55:02;7.70;99.90
20081;DHT22;10200;49.232;9.222;2022-11-20T08:57:28;7.70;99.90
20081;DHT22;10200;49.232;9.222;2022-11-20T08:59:53;7.70;99.90
20081;DHT22;10200;49.232;9.222;2022-11-20T09:02:19;7.80;99.90
20081;DHT22;10200;49.232;9.222;2022-11-20T09:04:44;7.80;99.90
20081;DHT22;10200;49.232;9.222;2022-11-20T09:07:10;7.80;99.90
20081;DHT22;10200;49.232;9.222;2022-11-20T09:09:35;7.80;99.90
20081;DHT22;10200;49.232;9.222;2022-11-20T09:12:01;7.90;99.90
20081;DHT22;10200;49.232;9.222;2022-11-20T09:14:26;8.00;99.90
20081;DHT22;10200;49.232;9.222;2022-11-20T09:16:55;8.00;99.90
20081;DHT22;10200;49.232;9.222;2022-11-20T09:19:20;8.10;99.90
20081;DHT22;10200;49.232;9.222;2022-11-20T09:21:46;8.10;99.90
20081;DHT22;10200;49.232;9.222;2022-11-20T09:24:12;8.10;99.90
20081;DHT22;10200;49.232;9.222;2022-11-20T09:26:37;8.20;99.90
20081;DHT22;10200;49.232;9.222;2022-11-20T09:29:03;8.20;99.90
20081;DHT22;10200;49.232;9.222;2022-11-20T09:31:28;8.20;99.90
20081;DHT22;10200;49.232;9.222;2022-11-20T09:33:54;8.20;99.90
20081;DHT22;10200;49.232;9.222;2022-11-20T09:36:20;8.20;99.90
20081;DHT22;10200;49.232;9.222;2022-11-20T09:38:46;8.20;99.90
20081;DHT22;10200;49.232;9.222;2022-11-20T09:47:01;8.20;99.90
20081;DHT22;10200;49.232;9.222;2022-11-20T09:49:53;8.30;99.90
20081;DHT22;10200;49.232;9.222;2022-11-20T09:53:21;8.30;99.90
20081;DHT22;10200;49.232;9.222;2022-11-20T09:55:25;8.30;99.90
20081;DHT22;10200;49.232;9.222;2022-11-20T09:57:53;8.40;99.90
20081;DHT22;10200;49.232;9.222;2022-11-20T10:00:20;8.40;99.90
20081;DHT22;10200;49.232;9.222;2022-11-20T10:05:40;8.30;99.90
20081;DHT22;10200;49.232;9.222;2022-11-20T10:10:49;8.30;99.90
20081;DHT22;10200;49.232;9.222;2022-11-20T10:21:30;8.40;99.90
20081;DHT22;10200;49.232;9.222;2022-11-20T10:24:12;8.40;99.90
20081;DHT22;10200;49.232;9.222;2022-11-20T10:29:32;8.50;99.90
20081;DHT22;10200;49.232;9.222;2022-11-20T10:32:11;8.60;99.90
20081;DHT22;10200;49.232;9.222;2022-11-20T10:35:01;8.60;99.90
20081;DHT22;10200;49.232;9.222;2022-11-20T10:37:31;8.60;99.90
20081;DHT22;10200;49.232;9.222;2022-11-20T10:43:04;8.60;99.90
20081;DHT22;10200;49.232;9.222;2022-11-20T10:48:10;8.60;99.90
20081;DHT22;10200;49.232;9.222;2022-11-20T10:50:40;8.60;99.90
20081;DHT22;10200;49.232;9.222;2022-11-20T10:56:56;8.60;99.90
20081;DHT22;10200;49.232;9.222;2022-11-20T11:01:49;8.60;99.90
20081;DHT22;10200;49.232;9.222;2022-11-20T11:04:37;8.60;99.90
20081;DHT22;10200;49.232;9.222;2022-11-20T11:09:48;8.60;99.90
20081;DHT22;10200;49.232;9.222;2022-11-20T11:12:14;8.60;99.90
20081;DHT22;10200;49.232;9.222;2022-11-20T11:14:45;8.70;99.90
20081;DHT22;10200;49.232;9.222;2022-11-20T11:17:21;8.70;99.90
20081;DHT22;10200;49.232;9.222;2022-11-20T11:20:06;8.70;99.90
20081;DHT22;10200;49.232;9.222;2022-11-20T11:22:46;8.80;99.90
20081;DHT22;10200;49.232;9.222;2022-11-20T11:27:58;8.80;99.90
20081;DHT22;10200;49.232;9.222;2022-11-20T11:30:26;8.80;99.90
20081;DHT22;10200;49.232;9.222;2022-11-20T11:33:03;8.80;99.90
20081;DHT22;10200;49.232;9.222;2022-11-20T11:35:29;8.80;99.90
20081;DHT22;10200;49.232;9.222;2022-11-20T11:38:06;8.80;99.90
20081;DHT22;10200;49.232;9.222;2022-11-20T11:40:34;8.80;99.90
20081;DHT22;10200;49.232;9.222;2022-11-20T11:43:04;8.70;99.90
20081;DHT22;10200;49.232;9.222;2022-11-20T11:45:30;8.80;99.90
20081;DHT22;10200;49.232;9.222;2022-11-20T11:47:58;8.80;99.90
20081;DHT22;10200;49.232;9.222;2022-11-20T11:50:27;8.80;99.90
20081;DHT22;10200;49.232;9.222;2022-11-20T11:52:58;8.90;99.90
20081;DHT22;10200;49.232;9.222;2022-11-20T11:55:50;9.20;99.90
20081;DHT22;10200;49.232;9.222;2022-11-20T12:01:33;9.50;99.90
20081;DHT22;10200;49.232;9.222;2022-11-20T12:04:05;9.60;99.90
20081;DHT22;10200;49.232;9.222;2022-11-20T12:06:39;9.80;99.90
20081;DHT22;10200;49.232;9.222;2022-11-20T12:09:11;9.90;99.90
20081;DHT22;10200;49.232;9.222;2022-11-20T12:12:05;10.00;99.90
20081;DHT22;10200;49.232;9.222;2022-11-20T12:14:43;10.00;99.90
20081;DHT22;10200;49.232;9.222;2022-11-20T12:17:12;9.90;99.90
20081;DHT22;10200;49.232;9.222;2022-11-20T12:19:39;9.90;99.90
20081;DHT22;10200;49.232;9.222;2022-11-20T12:27:44;9.90;99.90
20081;DHT22;10200;49.232;9.222;2022-11-20T12:30:14;9.90;99.90
20081;DHT22;10200;49.232;9.222;2022-11-20T12:38:11;10.00;99.90
20081;DHT22;10200;49.232;9.222;2022-11-20T12:40:50;10.10;99.90
20081;DHT22;10200;49.232;9.222;2022-11-20T12:43:24;10.20;99.90
20081;DHT22;10200;49.232;9.222;2022-11-20T12:49:19;10.60;99.90
20081;DHT22;10200;49.232;9.222;2022-11-20T12:52:11;10.60;99.90
20081;DHT22;10200;49.232;9.222;2022-11-20T12:55:16;10.60;99.90
20081;DHT22;10200;49.232;9.222;2022-11-20T13:00:23;10.60;99.90
20081;DHT22;10200;49.232;9.222;2022-11-20T13:05:47;10.70;99.90
20081;DHT22;10200;49.232;9.222;2022-11-20T13:08:36;10.70;99.90
20081;DHT22;10200;49.232;9.222;2022-11-20T13:11:10;10.70;99.90
20081;DHT22;10200;49.232;9.222;2022-11-20T13:14:04;10.60;99.90
20081;DHT22;10200;49.232;9.222;2022-11-20T13:19:13;10.70;99.90
20081;DHT22;10200;49.232;9.222;2022-11-20T13:21:47;10.60;99.90
20081;DHT22;10200;49.232;9.222;2022-11-20T13:29:29;10.30;99.90
20081;DHT22;10200;49.232;9.222;2022-11-20T13:32:14;10.30;99.90
20081;DHT22;10200;49.232;9.222;2022-11-20T13:34:55;10.20;99.90
20081;DHT22;10200;49.232;9.222;2022-11-20T13:37:32;10.20;99.90
20081;DHT22;10200;49.232;9.222;2022-11-20T13:42:40;10.40;99.90
20081;DHT22;10200;49.232;9.222;2022-11-20T13:45:20;10.50;99.90
20081;DHT22;10200;49.232;9.222;2022-11-20T13:47:48;10.50;99.90
20081;DHT22;10200;49.232;9.222;2022-11-20T13:50:14;10.50;99.90
20081;DHT22;10200;49.232;9.222;2022-11-20T13:58:27;10.40;99.90
20081;DHT22;10200;49.232;9.222;2022-11-20T14:01:05;10.30;99.90
20081;DHT22;10200;49.232;9.222;2022-11-20T14:03:34;10.20;99.90
20081;DHT22;10200;49.232;9.222;2022-11-20T14:06:10;10.10;99.90
20081;DHT22;10200;49.232;9.222;2022-11-20T14:08:43;10.10;99.90
20081;DHT22;10200;49.232;9.222;2022-11-20T14:11:45;10.00;99.90
20081;DHT22;10200;49.232;9.222;2022-11-20T14:16:40;9.80;99.90
20081;DHT22;10200;49.232;9.222;2022-11-20T14:21:52;9.60;99.90
20081;DHT22;10200;49.232;9.222;2022-11-20T14:24:23;9.60;99.90
20081;DHT22;10200;49.232;9.222;2022-11-20T14:26:49;9.50;99.90
20081;DHT22;10200;49.232;9.222;2022-11-20T14:29:17;9.50;99.90
20081;DHT22;10200;49.232;9.222;2022-11-20T14:31:48;9.50;99.90
20081;DHT22;10200;49.232;9.222;2022-11-20T14:34:28;9.50;99.90
20081;DHT22;10200;49.232;9.222;2022-11-20T14:37:00;9.40;99.90
20081;DHT22;10200;49.232;9.222;2022-11-20T14:39:36;9.40;99.90
20081;DHT22;10200;49.232;9.222;2022-11-20T14:42:11;9.40;99.90
20081;DHT22;10200;49.232;9.222;2022-11-20T14:44:39;9.40;99.90
20081;DHT22;10200;49.232;9.222;2022-11-20T14:47:06;9.40;99.90
20081;DHT22;10200;49.232;9.222;2022-11-20T14:49:32;9.30;99.90
20081;DHT22;10200;49.232;9.222;2022-11-20T14:52:13;9.30;99.90
20081;DHT22;10200;49.232;9.222;2022-11-20T14:54:50;9.30;99.90
20081;DHT22;10200;49.232;9.222;2022-11-20T14:57:35;9.20;99.90
20081;DHT22;10200;49.232;9.222;2022-11-20T15:02:41;9.10;99.90
20081;DHT22;10200;49.232;9.222;2022-11-20T15:05:08;9.10;99.90
20081;DHT22;10200;49.232;9.222;2022-11-20T15:07:41;9.10;99.90
20081;DHT22;10200;49.232;9.222;2022-11-20T15:10:12;9.10;99.90
20081;DHT22;10200;49.232;9.222;2022-11-20T15:12:45;9.10;99.90
20081;DHT22;10200;49.232;9.222;2022-11-20T15:15:15;9.00;99.90
20081;DHT22;10200;49.232;9.222;2022-11-20T15:17:42;9.00;99.90
20081;DHT22;10200;49.232;9.222;2022-11-20T15:20:14;9.00;99.90
20081;DHT22;10200;49.232;9.222;2022-11-20T15:22:40;8.90;99.90
20081;DHT22;10200;49.232;9.222;2022-11-20T15:25:16;8.90;99.90
20081;DHT22;10200;49.232;9.222;2022-11-20T15:27:43;8.90;99.90
20081;DHT22;10200;49.232;9.222;2022-11-20T15:30:20;8.90;99.90
20081;DHT22;10200;49.232;9.222;2022-11-20T15:32:46;8.80;99.90
20081;DHT22;10200;49.232;9.222;2022-11-20T15:35:12;8.70;99.90
20081;DHT22;10200;49.232;9.222;2022-11-20T15:37:38;8.70;99.90
20081;DHT22;10200;49.232;9.222;2022-11-20T15:40:05;8.60;99.90
20081;DHT22;10200;49.232;9.222;2022-11-20T15:42:32;8.60;99.90
20081;DHT22;10200;49.232;9.222;2022-11-20T15:44:57;8.50;99.90
20081;DHT22;10200;49.232;9.222;2022-11-20T15:47:33;8.50;99.90
20081;DHT22;10200;49.232;9.222;2022-11-20T15:49:59;8.40;99.90
20081;DHT22;10200;49.232;9.222;2022-11-20T15:52:25;8.40;99.90
20081;DHT22;10200;49.232;9.222;2022-11-20T15:54:51;8.40;99.90
20081;DHT22;10200;49.232;9.222;2022-11-20T15:57:16;8.40;99.90
20081;DHT22;10200;49.232;9.222;2022-11-20T15:59:42;8.40;99.90
20081;DHT22;10200;49.232;9.222;2022-11-20T16:02:11;8.30;99.90
20081;DHT22;10200;49.232;9.222;2022-11-20T16:04:37;8.30;99.90
20081;DHT22;10200;49.232;9.222;2022-11-20T16:07:03;8.30;99.90
20081;DHT22;10200;49.232;9.222;2022-11-20T16:09:29;8.30;99.90
20081;DHT22;10200;49.232;9.222;2022-11-20T16:11:54;8.20;99.90
20081;DHT22;10200;49.232;9.222;2022-11-20T16:14:20;8.30;99.90
20081;DHT22;10200;49.232;9.222;2022-11-20T16:17:04;8.20;99.90
20081;DHT22;10200;49.232;9.222;2022-11-20T16:19:29;8.30;99.90
20081;DHT22;10200;49.232;9.222;2022-11-20T16:21:56;8.20;99.90
20081;DHT22;10200;49.232;9.222;2022-11-20T16:24:22;8.20;99.90
20081;DHT22;10200;49.232;9.222;2022-11-20T16:26:47;8.20;99.90
20081;DHT22;10200;49.232;9.222;2022-11-20T16:29:13;8.20;99.90
20081;DHT22;10200;49.232;9.222;2022-11-20T16:31:39;8.20;99.90
20081;DHT22;10200;49.232;9.222;2022-11-20T16:34:06;8.20;99.90
20081;DHT22;10200;49.232;9.222;2022-11-20T16:36:32;8.20;99.90
20081;DHT22;10200;49.232;9.222;2022-11-20T16:39:00;8.10;99.90
20081;DHT22;10200;49.232;9.222;2022-11-20T16:41:27;8.10;99.90
20081;DHT22;10200;49.232;9.222;2022-11-20T16:43:54;8.10;99.90
20081;DHT22;10200;49.232;9.222;2022-11-20T16:46:23;8.10;99.90
20081;DHT22;10200;49.232;9.222;2022-11-20T16:49:00;8.10;99.90
20081;DHT22;10200;49.232;9.222;2022-11-20T16:51:28;8.10;99.90
20081;DHT22;10200;49.232;9.222;2022-11-20T16:53:54;8.10;99.90
20081;DHT22;10200;49.232;9.222;2022-11-20T16:56:23;8.10;99.90
20081;DHT22;10200;49.232;9.222;2022-11-20T16:58:49;8.10;99.90
20081;DHT22;10200;49.232;9.222;2022-11-20T17:01:17;8.10;99.90
20081;DHT22;10200;49.232;9.222;2022-11-20T17:03:46;8.10;99.90
20081;DHT22;10200;49.232;9.222;2022-11-20T17:06:17;8.00;99.90
20081;DHT22;10200;49.232;9.222;2022-11-20T17:08:44;8.00;99.90
20081;DHT22;10200;49.232;9.222;2022-11-20T17:11:12;8.00;99.90
20081;DHT22;10200;49.232;9.222;2022-11-20T17:13:38;8.00;99.90
20081;DHT22;10200;49.232;9.222;2022-11-20T17:16:06;8.00;99.90
20081;DHT22;10200;49.232;9.222;2022-11-20T17:18:32;8.00;99.90
20081;DHT22;10200;49.232;9.222;2022-11-20T17:20:59;8.00;99.90
20081;DHT22;10200;49.232;9.222;2022-11-20T17:23:29;8.00;99.90
20081;DHT22;10200;49.232;9.222;2022-11-20T17:28:27;8.00;99.90
20081;DHT22;10200;49.232;9.222;2022-11-20T17:30:53;8.00;99.90